createdAt,value
2019-02-16T00:02:22.141Z,22.50
2019-02-16T00:04:53.047Z,20.33
2019-02-16T00:07:23.990Z,20.30
2019-02-16T00:09:54.886Z,20.73
2019-02-16T00:12:25.841Z,20.20
2019-02-16T00:14:56.747Z,19.23
2019-02-16T00:17:27.720Z,19.20
2019-02-16T00:19:58.644Z,20.63
2019-02-16T00:22:29.566Z,20.67
2019-02-16T00:25:01.064Z,19.13
2019-02-16T00:27:32.027Z,19.73
2019-02-16T00:30:02.961Z,18.73
2019-02-16T00:32:33.958Z,18.57
2019-02-16T00:35:05.766Z,19.13
2019-02-16T00:37:36.707Z,19.27
2019-02-16T00:40:08.910Z,19.17
2019-02-16T00:42:39.870Z,20.10
2019-02-16T00:45:11.889Z,20.00
2019-02-16T00:47:42.799Z,21.90
2019-02-16T00:50:13.702Z,21.73
2019-02-16T00:52:46.378Z,23.90
2019-02-16T00:55:24.163Z,20.03
2019-02-16T00:57:55.241Z,21.07
2019-02-16T01:00:26.307Z,20.57
2019-02-16T01:02:57.206Z,20.87
2019-02-16T01:05:28.120Z,19.50
2019-02-16T01:07:59.053Z,19.17
2019-02-16T01:10:31.809Z,18.37
2019-02-16T01:13:05.881Z,19.20
2019-02-16T01:15:44.261Z,19.70
2019-02-16T01:18:15.186Z,21.43
2019-02-16T01:20:46.091Z,21.63
2019-02-16T01:23:17.016Z,25.20
2019-02-16T01:25:48.090Z,25.63
2019-02-16T01:28:19.145Z,26.20
2019-02-16T01:30:50.048Z,24.90
2019-02-16T01:33:22.455Z,24.97
2019-02-16T01:35:53.368Z,24.63
2019-02-16T01:38:24.301Z,21.93
2019-02-16T01:40:55.208Z,23.50
2019-02-16T01:43:26.226Z,21.47
2019-02-16T01:45:57.131Z,20.93
2019-02-16T01:48:28.064Z,21.33
2019-02-16T01:50:58.973Z,19.87
2019-02-16T01:53:29.912Z,22.83
2019-02-16T01:56:00.803Z,22.87
2019-02-16T01:58:31.774Z,22.73
2019-02-16T02:01:03.298Z,24.17
2019-02-16T02:03:34.968Z,22.00
2019-02-16T02:06:08.569Z,22.10
2019-02-16T02:08:39.663Z,20.53
2019-02-16T02:11:13.366Z,20.33
2019-02-16T02:13:44.334Z,20.73
2019-02-16T02:16:16.674Z,18.77
2019-02-16T02:18:47.682Z,18.10
2019-02-16T02:21:18.575Z,18.07
2019-02-16T02:23:49.507Z,20.07
2019-02-16T02:26:20.410Z,17.03
2019-02-16T02:28:51.373Z,19.17
2019-02-16T02:31:23.721Z,19.90
2019-02-16T02:33:54.656Z,19.87
2019-02-16T02:36:25.559Z,21.87
2019-02-16T02:38:56.501Z,21.13
2019-02-16T02:41:27.401Z,22.43
2019-02-16T02:43:58.587Z,22.07
2019-02-16T02:46:29.499Z,22.40
2019-02-16T02:49:00.428Z,22.83
2019-02-16T02:51:31.380Z,22.97
2019-02-16T02:54:02.363Z,23.57
2019-02-16T02:56:36.426Z,23.57
2019-02-16T02:59:09.821Z,23.10
2019-02-16T03:01:40.715Z,22.73
2019-02-16T03:04:11.657Z,21.50
2019-02-16T03:06:42.561Z,22.53
2019-02-16T03:09:13.492Z,22.10
2019-02-16T03:11:44.399Z,21.10
2019-02-16T03:14:15.351Z,21.73
2019-02-16T03:16:46.256Z,20.17
2019-02-16T03:19:21.453Z,22.30
2019-02-16T03:22:00.599Z,21.03
2019-02-16T03:24:25.003Z,21.30
2019-02-16T03:27:19.221Z,20.47
2019-02-16T03:30:26.512Z,19.93
2019-02-16T03:33:18.232Z,21.10
2019-02-16T03:36:03.904Z,21.07
2019-02-16T03:38:43.247Z,19.57
2019-02-16T03:41:14.263Z,19.80
2019-02-16T03:43:45.208Z,20.67
2019-02-16T03:46:16.525Z,20.17
2019-02-16T03:48:47.434Z,22.13
2019-02-16T03:51:18.368Z,19.67
2019-02-16T03:53:49.286Z,19.97
2019-02-16T03:56:20.210Z,19.23
2019-02-16T03:58:51.123Z,22.47
2019-02-16T04:01:22.097Z,20.60
2019-02-16T04:03:57.541Z,19.90
2019-02-16T04:06:28.477Z,18.50
2019-02-16T04:08:59.379Z,20.77
2019-02-16T04:11:30.336Z,20.57
2019-02-16T04:14:01.223Z,18.77
2019-02-16T04:16:32.275Z,19.47
2019-02-16T04:19:03.197Z,19.43
2019-02-16T04:21:34.129Z,18.10
2019-02-16T04:24:05.097Z,17.43
2019-02-16T04:26:36.028Z,17.43
2019-02-16T04:29:06.931Z,18.03
2019-02-16T04:31:37.912Z,18.23
2019-02-16T04:34:08.831Z,17.83
2019-02-16T04:36:39.754Z,18.87
2019-02-16T04:39:10.659Z,18.07
2019-02-16T04:41:41.608Z,19.10
2019-02-16T04:44:12.512Z,18.20
2019-02-16T04:46:43.473Z,20.50
2019-02-16T04:49:14.366Z,20.30
2019-02-16T04:51:48.294Z,20.77
2019-02-16T04:54:19.367Z,22.07
2019-02-16T04:56:50.295Z,21.40
2019-02-16T04:59:21.197Z,21.50
2019-02-16T05:01:54.806Z,21.87
2019-02-16T05:04:25.709Z,22.50
2019-02-16T05:06:56.654Z,22.13
2019-02-16T05:09:27.542Z,21.87
2019-02-16T05:11:58.476Z,20.67
2019-02-16T05:14:29.371Z,22.20
2019-02-16T05:17:00.357Z,23.30
2019-02-16T05:19:31.310Z,22.00
2019-02-16T05:22:02.573Z,21.77
2019-02-16T05:24:33.447Z,21.60
2019-02-16T05:27:06.183Z,20.03
2019-02-16T05:29:37.097Z,18.13
2019-02-16T05:32:08.083Z,16.80
2019-02-16T05:34:38.993Z,14.87
2019-02-16T05:37:09.921Z,15.73
2019-02-16T05:39:40.896Z,16.43
2019-02-16T05:42:11.902Z,15.47
2019-02-16T05:44:42.877Z,15.00
2019-02-16T05:47:15.781Z,15.37
2019-02-16T05:49:46.691Z,21.10
2019-02-16T05:52:17.679Z,25.97
2019-02-16T05:54:48.597Z,26.50
2019-02-16T05:57:19.526Z,28.97
2019-02-16T05:59:50.447Z,26.17
2019-02-16T06:02:21.729Z,21.23
2019-02-16T06:04:52.625Z,21.17
2019-02-16T06:07:23.559Z,21.87
2019-02-16T06:09:54.459Z,22.67
2019-02-16T06:12:25.389Z,23.97
2019-02-16T06:14:56.304Z,25.47
2019-02-16T06:17:27.294Z,25.53
2019-02-16T06:19:58.198Z,27.20
2019-02-16T06:22:29.136Z,28.13
2019-02-16T06:25:00.025Z,24.80
2019-02-16T06:27:30.965Z,20.33
2019-02-16T06:30:01.859Z,18.77
2019-02-16T06:32:32.817Z,19.43
2019-02-16T06:35:08.472Z,20.40
2019-02-16T06:37:39.400Z,20.47
2019-02-16T06:40:10.300Z,19.97
2019-02-16T06:42:41.237Z,18.73
2019-02-16T06:45:12.225Z,20.47
2019-02-16T06:47:44.287Z,21.43
2019-02-16T06:50:19.653Z,21.97
2019-02-16T06:52:50.573Z,22.20
2019-02-16T06:55:22.154Z,22.93
2019-02-16T06:57:53.089Z,22.57
2019-02-16T07:00:25.568Z,23.13
2019-02-16T07:02:56.966Z,23.93
2019-02-16T07:05:28.955Z,24.43
2019-02-16T07:07:59.977Z,24.53
2019-02-16T07:10:32.391Z,26.60
2019-02-16T07:13:03.337Z,25.50
2019-02-16T07:15:34.231Z,24.30
2019-02-16T07:18:15.663Z,26.27
2019-02-16T07:20:49.429Z,28.40
2019-02-16T07:23:22.456Z,24.67
2019-02-16T07:25:52.960Z,24.33
2019-02-16T07:28:40.066Z,23.63
2019-02-16T07:31:10.971Z,21.80
2019-02-16T07:33:41.958Z,20.07
2019-02-16T07:36:15.962Z,17.80
2019-02-16T07:38:46.894Z,15.20
2019-02-16T07:41:17.802Z,14.40
2019-02-16T07:43:53.087Z,13.05
2019-02-16T07:46:28.708Z,12.60
2019-02-16T07:49:04.164Z,12.78
2019-02-16T07:51:39.736Z,13.43
2019-02-16T07:54:15.083Z,12.35
2019-02-16T07:56:53.403Z,11.55
2019-02-16T07:59:28.995Z,11.60
2019-02-16T08:02:01.742Z,11.25
2019-02-16T08:04:50.792Z,11.20
2019-02-16T08:07:29.267Z,11.10
2019-02-16T08:10:10.605Z,11.53
2019-02-16T08:12:55.363Z,11.18
2019-02-16T08:15:44.452Z,10.58
2019-02-16T08:18:25.925Z,11.88
2019-02-16T08:21:10.586Z,11.40
2019-02-16T08:23:51.922Z,11.50
2019-02-16T08:26:36.612Z,11.00
2019-02-16T08:29:25.231Z,10.75
2019-02-16T08:32:00.768Z,10.28
2019-02-16T08:34:42.343Z,10.28
2019-02-16T08:37:18.068Z,11.68
2019-02-16T08:39:53.328Z,11.20
2019-02-16T08:42:41.179Z,9.38
2019-02-16T08:45:31.794Z,9.75
2019-02-16T08:48:22.889Z,9.35
2019-02-16T08:50:55.452Z,11.40
2019-02-16T08:53:31.434Z,9.78
2019-02-16T08:56:03.982Z,10.32
2019-02-16T08:58:48.476Z,10.20
2019-02-16T09:01:39.466Z,10.78
2019-02-16T09:04:17.827Z,10.58
2019-02-16T09:06:59.030Z,9.90
2019-02-16T09:09:50.147Z,9.40
2019-02-16T09:12:35.452Z,9.15
2019-02-16T09:15:19.728Z,8.30
2019-02-16T09:17:54.999Z,13.00
2019-02-16T09:20:36.520Z,10.43
2019-02-16T09:23:09.081Z,11.53
2019-02-16T09:25:47.772Z,9.95
2019-02-16T09:28:20.326Z,7.65
2019-02-16T09:31:09.058Z,7.72
2019-02-16T09:33:57.967Z,8.75
2019-02-16T09:36:46.906Z,7.30
2019-02-16T09:39:31.655Z,7.70
2019-02-16T09:42:04.261Z,8.58
2019-02-16T09:44:39.754Z,6.17
2019-02-16T09:47:28.371Z,6.22
2019-02-16T09:50:06.949Z,6.40
2019-02-16T09:52:39.523Z,6.47
2019-02-16T09:55:12.052Z,5.55
2019-02-16T09:58:02.779Z,6.05
2019-02-16T10:00:39.115Z,8.88
2019-02-16T10:03:11.667Z,7.42
2019-02-16T10:05:44.208Z,6.60
2019-02-16T10:08:22.784Z,5.67
2019-02-16T10:11:04.059Z,6.55
2019-02-16T10:13:42.553Z,6.65
2019-02-16T10:16:31.372Z,6.30
2019-02-16T10:19:03.933Z,6.58
2019-02-16T10:21:48.432Z,7.08
2019-02-16T10:24:27.274Z,7.35
2019-02-16T10:27:05.590Z,6.50
2019-02-16T10:29:47.214Z,5.97
2019-02-16T10:32:22.543Z,6.20
2019-02-16T10:34:55.105Z,6.33
2019-02-16T10:37:33.687Z,7.87
2019-02-16T10:40:16.278Z,6.03
2019-02-16T10:43:04.043Z,7.22
2019-02-16T10:45:36.814Z,5.35
2019-02-16T10:48:12.038Z,4.87
2019-02-16T10:50:44.616Z,5.20
2019-02-16T10:53:17.168Z,5.12
2019-02-16T10:55:51.210Z,6.05
2019-02-16T10:58:23.744Z,8.23
2019-02-16T11:01:02.435Z,5.67
2019-02-16T11:03:40.713Z,5.70
2019-02-16T11:06:19.131Z,6.15
2019-02-16T11:08:52.480Z,5.37
2019-02-16T11:11:33.979Z,4.67
2019-02-16T11:14:06.510Z,5.40
2019-02-16T11:16:41.812Z,5.42
2019-02-16T11:19:22.881Z,6.03
2019-02-16T11:21:55.444Z,5.90
2019-02-16T11:24:40.311Z,5.55
2019-02-16T11:27:12.971Z,5.45
2019-02-16T11:30:01.764Z,6.10
2019-02-16T11:32:34.352Z,5.58
2019-02-16T11:35:07.791Z,5.78
2019-02-16T11:37:40.363Z,6.65
2019-02-16T11:40:15.864Z,6.42
2019-02-16T11:42:51.390Z,6.58
2019-02-16T11:45:30.021Z,10.85
2019-02-16T11:48:02.617Z,6.90
2019-02-16T11:50:47.267Z,5.58
2019-02-16T11:53:38.100Z,6.42
2019-02-16T11:56:13.580Z,5.42
2019-02-16T11:59:02.930Z,5.60
2019-02-16T12:01:41.429Z,5.15
2019-02-16T12:04:17.183Z,4.70
2019-02-16T12:06:55.907Z,4.80
2019-02-16T12:09:36.267Z,6.72
2019-02-16T12:12:21.266Z,5.42
2019-02-16T12:14:56.535Z,5.58
2019-02-16T12:17:37.966Z,4.67
2019-02-16T12:20:13.280Z,5.03
2019-02-16T12:22:45.826Z,5.20
2019-02-16T12:25:36.648Z,5.20
2019-02-16T12:28:25.287Z,5.10
2019-02-16T12:31:00.838Z,4.50
2019-02-16T12:33:39.144Z,4.10
2019-02-16T12:36:30.046Z,5.08
2019-02-16T12:39:04.750Z,4.75
2019-02-16T12:41:36.866Z,5.28
2019-02-16T12:44:28.563Z,4.42
2019-02-16T12:47:12.932Z,4.30
2019-02-16T12:49:54.269Z,4.97
2019-02-16T12:52:41.868Z,4.53
2019-02-16T12:55:17.598Z,3.50
2019-02-16T12:57:55.666Z,5.87
2019-02-16T13:00:40.198Z,4.37
2019-02-16T13:03:24.451Z,4.67
2019-02-16T13:06:09.198Z,4.17
2019-02-16T13:08:47.960Z,4.42
2019-02-16T13:11:23.156Z,3.83
2019-02-16T13:14:13.827Z,3.62
2019-02-16T13:17:02.691Z,3.92
2019-02-16T13:19:38.384Z,4.37
2019-02-16T13:22:21.445Z,9.73
2019-02-16T13:24:55.500Z,5.35
2019-02-16T13:27:36.837Z,5.22
2019-02-16T13:30:19.317Z,5.87
2019-02-16T13:33:08.082Z,6.20
2019-02-16T13:35:39.873Z,5.10
2019-02-16T13:38:21.163Z,4.78
2019-02-16T13:40:54.833Z,5.75
2019-02-16T13:43:36.517Z,5.65
2019-02-16T13:46:24.017Z,6.17
2019-02-16T13:48:56.545Z,5.03
2019-02-16T13:51:45.167Z,5.10
2019-02-16T13:54:17.702Z,5.78
2019-02-16T13:57:05.562Z,11.60
2019-02-16T13:59:48.238Z,6.10
2019-02-16T14:02:29.580Z,6.97
2019-02-16T14:05:02.122Z,4.87
2019-02-16T14:07:40.672Z,5.35
2019-02-16T14:10:28.184Z,6.37
2019-02-16T14:13:15.704Z,5.30
2019-02-16T14:15:54.401Z,7.65
2019-02-16T14:18:27.859Z,9.10
2019-02-16T14:20:57.926Z,6.97
2019-02-16T14:23:28.878Z,7.00
2019-02-16T14:25:59.776Z,5.72
2019-02-16T14:28:33.675Z,4.95
2019-02-16T14:31:04.578Z,8.40
2019-02-16T14:33:35.503Z,9.33
2019-02-16T14:36:07.940Z,7.83
2019-02-16T14:38:40.514Z,7.97
2019-02-16T14:41:14.411Z,7.42
2019-02-16T14:43:49.778Z,10.88
2019-02-16T14:46:20.696Z,11.75
2019-02-16T14:48:51.638Z,14.70
2019-02-16T14:51:22.555Z,17.27
2019-02-16T14:53:53.491Z,11.85
2019-02-16T14:56:24.397Z,21.93
2019-02-16T14:58:55.359Z,21.15
2019-02-16T15:01:26.268Z,23.05
2019-02-16T15:03:57.211Z,21.02
2019-02-16T15:06:31.106Z,7.37
2019-02-16T15:09:02.038Z,7.42
2019-02-16T15:11:32.932Z,6.05
2019-02-16T15:14:03.887Z,5.90
2019-02-16T15:16:34.808Z,14.23
2019-02-16T15:19:05.743Z,13.43
2019-02-16T15:21:36.656Z,27.32
2019-02-16T15:24:07.774Z,20.12
2019-02-16T15:26:38.694Z,27.67
2019-02-16T15:29:09.647Z,27.30
2019-02-16T15:31:42.204Z,13.68
2019-02-16T15:34:13.144Z,16.27
2019-02-16T15:36:44.064Z,29.92
2019-02-16T15:39:15.025Z,41.20
2019-02-16T15:41:45.923Z,31.97
2019-02-16T15:44:16.895Z,22.15
2019-02-16T15:46:47.811Z,35.92
2019-02-16T15:49:18.741Z,47.48
2019-02-16T15:51:49.656Z,44.08
2019-02-16T15:54:23.281Z,40.43
2019-02-16T15:56:54.198Z,29.82
2019-02-16T15:59:25.221Z,24.55
2019-02-16T16:01:56.128Z,23.75
2019-02-16T16:04:27.116Z,21.30
2019-02-16T16:06:58.022Z,28.07
2019-02-16T16:09:45.948Z,30.17
2019-02-16T16:12:24.399Z,29.30
2019-02-16T16:15:14.377Z,27.42
2019-02-16T16:17:49.915Z,28.10
2019-02-16T16:20:32.365Z,32.60
2019-02-16T16:23:07.539Z,38.55
2019-02-16T16:25:40.134Z,33.65
2019-02-16T16:28:21.446Z,45.28
2019-02-16T16:30:54.047Z,52.58
2019-02-16T16:33:35.624Z,51.75
2019-02-16T16:36:10.907Z,43.58
2019-02-16T16:38:43.463Z,43.30
2019-02-16T16:41:18.800Z,50.38
2019-02-16T16:44:03.537Z,53.23
2019-02-16T16:46:36.134Z,36.05
2019-02-16T16:49:14.422Z,30.15
2019-02-16T16:51:51.064Z,33.05
2019-02-16T16:54:23.627Z,31.60
2019-02-16T16:56:59.177Z,32.93
2019-02-16T16:59:37.441Z,31.05
2019-02-16T17:02:28.080Z,34.83
2019-02-16T17:05:00.652Z,41.35
2019-02-16T17:07:33.225Z,42.67
2019-02-16T17:10:15.438Z,53.73
2019-02-16T17:13:04.333Z,108.60
2019-02-16T17:15:37.814Z,35.20
2019-02-16T17:18:13.167Z,26.42
2019-02-16T17:20:48.525Z,21.65
2019-02-16T17:23:40.310Z,21.50
2019-02-16T17:26:15.667Z,20.77
2019-02-16T17:28:51.392Z,26.97
2019-02-16T17:31:23.942Z,29.13
2019-02-16T17:34:14.673Z,28.87
2019-02-16T17:36:59.262Z,39.50
2019-02-16T17:39:48.095Z,38.50
2019-02-16T17:42:35.674Z,33.98
2019-02-16T17:45:27.393Z,32.30
2019-02-16T17:48:16.034Z,33.13
2019-02-16T17:50:54.623Z,29.37
2019-02-16T17:53:27.170Z,28.85
2019-02-16T17:55:59.747Z,27.63
2019-02-16T17:58:32.290Z,37.33
2019-02-16T18:01:10.645Z,34.38
2019-02-16T18:03:59.817Z,32.97
2019-02-16T18:06:35.452Z,27.33
2019-02-16T18:09:08.400Z,34.73
2019-02-16T18:11:42.474Z,41.60
2019-02-16T18:14:15.035Z,37.13
2019-02-16T18:16:47.607Z,41.80
2019-02-16T18:19:26.118Z,40.20
2019-02-16T18:22:13.942Z,33.75
2019-02-16T18:24:46.492Z,28.33
2019-02-16T18:27:21.756Z,20.40
2019-02-16T18:29:57.277Z,15.50
2019-02-16T18:32:45.950Z,19.27
2019-02-16T18:35:23.911Z,20.82
2019-02-16T18:37:55.861Z,18.87
2019-02-16T18:40:31.240Z,18.87
2019-02-16T18:43:15.816Z,21.73
2019-02-16T18:45:48.355Z,24.53
2019-02-16T18:48:39.696Z,20.83
2019-02-16T18:51:28.327Z,18.77
2019-02-16T18:54:17.355Z,17.20
2019-02-16T18:56:49.911Z,18.17
2019-02-16T18:59:25.446Z,16.10
2019-02-16T19:02:07.230Z,16.00
2019-02-16T19:04:42.655Z,16.93
2019-02-16T19:07:24.182Z,15.57
2019-02-16T19:10:02.825Z,17.13
2019-02-16T19:12:35.350Z,20.35
2019-02-16T19:15:27.990Z,18.33
2019-02-16T19:18:03.262Z,17.07
2019-02-16T19:20:35.808Z,18.20
2019-02-16T19:23:08.359Z,18.40
2019-02-16T19:25:47.100Z,17.13
2019-02-16T19:28:19.652Z,14.40
2019-02-16T19:30:54.950Z,14.37
2019-02-16T19:33:30.207Z,18.27
2019-02-16T19:36:07.333Z,17.27
2019-02-16T19:38:50.647Z,16.17
2019-02-16T19:41:26.043Z,15.93
2019-02-16T19:44:16.793Z,15.05
2019-02-16T19:47:01.654Z,14.30
2019-02-16T19:49:37.154Z,15.40
2019-02-16T19:52:25.968Z,12.58
2019-02-16T19:55:14.771Z,14.17
2019-02-16T19:57:53.195Z,13.53
2019-02-16T20:00:43.977Z,13.60
2019-02-16T20:03:28.403Z,13.73
2019-02-16T20:06:10.112Z,12.70
2019-02-16T20:08:48.595Z,13.43
2019-02-16T20:11:23.895Z,14.07
2019-02-16T20:14:08.567Z,13.78
2019-02-16T20:16:41.113Z,12.98
2019-02-16T20:19:16.647Z,13.80
2019-02-16T20:22:01.044Z,13.00
2019-02-16T20:24:36.729Z,12.23
2019-02-16T20:27:24.534Z,12.97
2019-02-16T20:29:57.114Z,11.50
2019-02-16T20:32:29.655Z,12.57
2019-02-16T20:35:02.243Z,12.45
2019-02-16T20:37:39.371Z,13.60
2019-02-16T20:40:27.083Z,12.00
2019-02-16T20:43:17.631Z,13.27
2019-02-16T20:45:56.220Z,13.00
2019-02-16T20:48:45.117Z,13.03
2019-02-16T20:51:29.647Z,23.57
2019-02-16T20:54:05.260Z,15.87
2019-02-16T20:56:37.900Z,14.20
2019-02-16T20:59:19.700Z,14.73
2019-02-16T21:01:52.288Z,15.90
2019-02-16T21:04:33.828Z,14.57
2019-02-16T21:07:12.379Z,13.50
2019-02-16T21:09:44.929Z,13.30
2019-02-16T21:12:17.493Z,13.45
2019-02-16T21:14:56.185Z,13.98
2019-02-16T21:17:35.428Z,13.47
2019-02-16T21:20:24.599Z,12.75
2019-02-16T21:23:13.480Z,13.20
2019-02-16T21:25:46.063Z,12.88
2019-02-16T21:28:18.634Z,12.60
2019-02-16T21:30:53.881Z,14.70
2019-02-16T21:33:26.487Z,12.93
2019-02-16T21:36:07.799Z,13.18
2019-02-16T21:38:51.292Z,15.00
2019-02-16T21:41:32.401Z,40.10
2019-02-16T21:44:07.714Z,16.57
2019-02-16T21:46:46.261Z,14.57
2019-02-16T21:49:39.371Z,14.53
2019-02-16T21:52:18.855Z,15.37
2019-02-16T21:55:00.757Z,14.13
2019-02-16T21:57:39.205Z,13.90
2019-02-16T22:00:24.306Z,12.83
2019-02-16T22:02:58.467Z,14.73
2019-02-16T22:05:49.510Z,14.33
2019-02-16T22:08:31.139Z,16.40
2019-02-16T22:11:12.458Z,15.17
2019-02-16T22:13:43.350Z,12.63
2019-02-16T22:16:17.264Z,13.83
2019-02-16T22:18:51.647Z,12.63
2019-02-16T22:21:22.619Z,13.73
2019-02-16T22:23:56.264Z,14.17
2019-02-16T22:26:27.199Z,12.67
2019-02-16T22:28:58.094Z,13.10
2019-02-16T22:31:29.105Z,11.83
2019-02-16T22:34:00.006Z,14.73
2019-02-16T22:36:30.959Z,14.97
2019-02-16T22:39:01.858Z,15.37
2019-02-16T22:41:39.124Z,14.27
2019-02-16T22:44:10.055Z,15.00
2019-02-16T22:46:41.578Z,16.03
2019-02-16T22:49:12.578Z,14.53
2019-02-16T22:51:45.040Z,17.60
2019-02-16T22:54:16.010Z,16.60
2019-02-16T22:56:46.932Z,15.83
2019-02-16T22:59:17.838Z,14.40
2019-02-16T23:01:48.771Z,14.70
2019-02-16T23:04:19.671Z,14.30
2019-02-16T23:06:52.156Z,14.63
2019-02-16T23:09:24.691Z,14.10
2019-02-16T23:11:57.147Z,14.37
2019-02-16T23:14:28.314Z,14.50
2019-02-16T23:17:02.122Z,14.33
2019-02-16T23:19:35.698Z,14.27
2019-02-16T23:22:06.725Z,13.57
2019-02-16T23:24:37.589Z,13.70
2019-02-16T23:27:08.529Z,13.70
2019-02-16T23:29:39.428Z,14.20
2019-02-16T23:32:10.359Z,15.63
2019-02-16T23:34:41.267Z,19.40
2019-02-16T23:37:12.211Z,35.17
2019-02-16T23:39:43.111Z,22.67
2019-02-16T23:42:14.058Z,16.70
2019-02-16T23:44:47.960Z,15.43
2019-02-16T23:47:18.887Z,16.03
2019-02-16T23:49:55.526Z,15.33
2019-02-16T23:52:26.507Z,14.90
2019-02-16T23:54:57.411Z,16.37
2019-02-16T23:57:28.350Z,15.20
2019-02-16T23:59:59.247Z,15.07
